createdAt,value
2018-07-25T00:00:10.768Z,28.33
2018-07-25T00:01:11.061Z,28.33
2018-07-25T00:02:11.083Z,28.37
2018-07-25T00:03:11.110Z,28.32
2018-07-25T00:04:10.619Z,28.27
2018-07-25T00:05:10.908Z,28.37
2018-07-25T00:06:11.200Z,28.25
2018-07-25T00:07:11.236Z,28.27
2018-07-25T00:08:11.251Z,28.2
2018-07-25T00:09:11.024Z,28.19
2018-07-25T00:10:11.053Z,28.14
2018-07-25T00:11:11.078Z,28.17
2018-07-25T00:12:11.105Z,28.04
2018-07-25T00:13:11.145Z,28.04
2018-07-25T00:14:11.427Z,28.1
2018-07-25T00:15:11.455Z,28.02
2018-07-25T00:16:11.228Z,28.02
2018-07-25T00:17:11.510Z,28.01
2018-07-25T00:18:11.537Z,28.01
2018-07-25T00:19:11.312Z,27.98
2018-07-25T00:20:11.599Z,28
2018-07-25T00:21:11.621Z,27.95
2018-07-25T00:22:11.660Z,27.85
2018-07-25T00:23:11.685Z,27.89
2018-07-25T00:24:11.706Z,27.92
2018-07-25T00:25:11.482Z,27.87
2018-07-25T00:26:11.762Z,27.86
2018-07-25T00:27:11.791Z,27.8
2018-07-25T00:28:11.563Z,27.83
2018-07-25T00:29:11.858Z,27.8
2018-07-25T00:30:11.878Z,27.85
2018-07-25T00:31:11.667Z,27.74
2018-07-25T00:32:11.675Z,27.68
2018-07-25T00:33:11.702Z,27.73
2018-07-25T00:34:11.740Z,27.7
2018-07-25T00:35:12.022Z,27.67
2018-07-25T00:36:12.072Z,27.6
2018-07-25T00:37:12.076Z,27.63
2018-07-25T00:38:11.849Z,27.58
2018-07-25T00:39:11.878Z,27.6
2018-07-25T00:40:11.904Z,27.54
2018-07-25T00:41:11.933Z,27.51
2018-07-25T00:42:12.217Z,27.47
2018-07-25T00:43:12.240Z,27.51
2018-07-25T00:44:12.015Z,27.49
2018-07-25T00:45:12.036Z,27.45
2018-07-25T00:46:12.069Z,27.47
2018-07-25T00:47:12.362Z,27.45
2018-07-25T00:48:12.386Z,27.39
2018-07-25T00:49:12.161Z,27.48
2018-07-25T00:50:11.918Z,27.45
2018-07-25T00:51:12.470Z,27.36
2018-07-25T00:52:12.288Z,27.3
2018-07-25T00:53:12.264Z,27.44
2018-07-25T00:54:12.548Z,27.32
2018-07-25T00:55:12.589Z,27.26
2018-07-25T00:56:12.345Z,27.29
2018-07-25T00:57:12.640Z,27.26
2018-07-25T00:58:12.662Z,27.26
2018-07-25T00:59:12.691Z,27.22
2018-07-25T01:00:12.715Z,27.17
2018-07-25T01:01:12.746Z,27.12
2018-07-25T01:02:12.514Z,27.18
2018-07-25T01:03:12.802Z,27.22
2018-07-25T01:04:12.835Z,27.11
2018-07-25T01:05:12.601Z,27.08
2018-07-25T01:06:12.885Z,27.08
2018-07-25T01:07:12.654Z,27.02
2018-07-25T01:08:12.685Z,27.03
2018-07-25T01:09:12.965Z,27.02
2018-07-25T01:10:12.740Z,27.02
2018-07-25T01:11:12.772Z,26.99
2018-07-25T01:12:12.786Z,27.02
2018-07-25T01:13:13.091Z,26.9
2018-07-25T01:14:13.107Z,26.9
2018-07-25T01:15:12.874Z,26.9
2018-07-25T01:16:13.165Z,26.89
2018-07-25T01:17:13.189Z,26.9
2018-07-25T01:18:12.696Z,26.83
2018-07-25T01:19:12.722Z,26.9
2018-07-25T01:20:13.271Z,26.8
2018-07-25T01:21:13.035Z,26.81
2018-07-25T01:22:13.067Z,26.77
2018-07-25T01:23:12.834Z,26.81
2018-07-25T01:24:13.383Z,26.77
2018-07-25T01:25:13.404Z,26.78
2018-07-25T01:26:13.173Z,26.71
2018-07-25T01:27:13.366Z,26.68
2018-07-25T01:28:13.229Z,26.63
2018-07-25T01:29:13.260Z,26.65
2018-07-25T01:30:14.273Z,26.63
2018-07-25T01:31:13.630Z,26.63
2018-07-25T01:32:13.597Z,26.58
2018-07-25T01:33:13.368Z,26.62
2018-07-25T01:34:13.651Z,26.51
2018-07-25T01:35:13.775Z,26.56
2018-07-25T01:36:13.186Z,26.53
2018-07-25T01:37:13.858Z,26.52
2018-07-25T01:38:13.500Z,26.52
2018-07-25T01:39:13.793Z,26.47
2018-07-25T01:40:13.556Z,26.45
2018-07-25T01:41:13.858Z,26.45
2018-07-25T01:42:14.106Z,26.47
2018-07-25T01:43:13.693Z,26.43
2018-07-25T01:44:13.933Z,26.38
2018-07-25T01:45:13.702Z,26.36
2018-07-25T01:46:14.438Z,26.31
2018-07-25T01:47:13.745Z,26.28
2018-07-25T01:48:14.034Z,26.29
2018-07-25T01:49:14.061Z,26.33
2018-07-25T01:50:14.084Z,26.26
2018-07-25T01:51:13.854Z,26.26
2018-07-25T01:52:14.146Z,26.25
2018-07-25T01:53:14.169Z,26.26
2018-07-25T01:54:13.939Z,26.22
2018-07-25T01:55:14.226Z,26.19
2018-07-25T01:56:13.995Z,26.16
2018-07-25T01:57:14.881Z,26.18
2018-07-25T01:58:14.306Z,26.23
2018-07-25T01:59:14.334Z,26.16
2018-07-25T02:00:14.098Z,26.07
2018-07-25T02:01:14.442Z,26.13
2018-07-25T02:02:14.150Z,26.09
2018-07-25T02:03:14.437Z,26.16
2018-07-25T02:04:15.314Z,26.13
2018-07-25T02:05:14.233Z,26.09
2018-07-25T02:06:14.262Z,26.05
2018-07-25T02:07:14.287Z,26.02
2018-07-25T02:08:14.749Z,26.05
2018-07-25T02:09:14.599Z,25.98
2018-07-25T02:10:14.368Z,26
2018-07-25T02:11:14.649Z,25.96
2018-07-25T02:12:14.678Z,25.96
2018-07-25T02:13:14.452Z,25.91
2018-07-25T02:14:14.214Z,25.9
2018-07-25T02:15:14.763Z,25.95
2018-07-25T02:16:14.787Z,25.85
2018-07-25T02:17:14.555Z,25.87
2018-07-25T02:18:14.837Z,25.87
2018-07-25T02:19:14.348Z,25.84
2018-07-25T02:20:14.893Z,25.81
2018-07-25T02:21:14.402Z,25.81
2018-07-25T02:22:14.949Z,25.73
2018-07-25T02:23:14.976Z,25.75
2018-07-25T02:24:15.001Z,25.7
2018-07-25T02:25:14.771Z,25.72
2018-07-25T02:26:15.053Z,25.7
2018-07-25T02:27:14.829Z,25.7
2018-07-25T02:28:14.848Z,25.72
2018-07-25T02:29:14.872Z,25.72
2018-07-25T02:30:15.160Z,25.7
2018-07-25T02:31:15.710Z,25.69
2018-07-25T02:32:15.218Z,25.66
2018-07-25T02:33:15.244Z,25.65
2018-07-25T02:34:15.268Z,25.65
2018-07-25T02:35:15.293Z,25.6
2018-07-25T02:36:15.336Z,25.54
2018-07-25T02:37:15.355Z,25.55
2018-07-25T02:38:15.380Z,25.54
2018-07-25T02:39:15.148Z,25.54
2018-07-25T02:40:15.429Z,25.59
2018-07-25T02:41:15.190Z,25.66
2018-07-25T02:42:15.494Z,25.5
2018-07-25T02:43:15.515Z,25.43
2018-07-25T02:44:15.546Z,25.54
2018-07-25T02:45:15.559Z,25.44
2018-07-25T02:46:15.591Z,25.44
2018-07-25T02:47:15.611Z,25.44
2018-07-25T02:48:15.639Z,25.5
2018-07-25T02:49:15.665Z,25.5
2018-07-25T02:50:15.695Z,25.44
2018-07-25T02:51:15.712Z,25.43
2018-07-25T02:52:15.750Z,25.36
2018-07-25T02:53:15.805Z,25.31
2018-07-25T02:54:15.800Z,25.31
2018-07-25T02:55:15.562Z,25.35
2018-07-25T02:56:15.851Z,25.29
2018-07-25T02:57:15.873Z,25.25
2018-07-25T02:58:15.645Z,25.28
2018-07-25T02:59:15.929Z,25.32
2018-07-25T03:00:15.704Z,25.28
2018-07-25T03:01:15.980Z,25.22
2018-07-25T03:02:16.005Z,25.29
2018-07-25T03:03:16.034Z,25.26
2018-07-25T03:04:16.068Z,25.16
2018-07-25T03:05:15.821Z,25.17
2018-07-25T03:06:15.595Z,25.17
2018-07-25T03:07:15.908Z,25.1
2018-07-25T03:08:16.161Z,25.16
2018-07-25T03:09:16.450Z,25.13
2018-07-25T03:10:15.956Z,25.13
2018-07-25T03:11:16.252Z,25.11
2018-07-25T03:12:16.013Z,25.13
2018-07-25T03:13:16.337Z,25.06
2018-07-25T03:14:16.318Z,25.1
2018-07-25T03:15:16.348Z,25.1
2018-07-25T03:16:16.365Z,24.98
2018-07-25T03:17:16.400Z,24.99
2018-07-25T03:18:16.426Z,25.01
2018-07-25T03:19:16.455Z,24.96
2018-07-25T03:20:16.476Z,24.99
2018-07-25T03:21:16.500Z,24.99
2018-07-25T03:22:16.525Z,24.99
2018-07-25T03:23:16.578Z,24.98
2018-07-25T03:24:16.574Z,24.98
2018-07-25T03:25:16.342Z,24.85
2018-07-25T03:26:16.370Z,24.93
2018-07-25T03:27:16.399Z,24.91
2018-07-25T03:28:16.423Z,24.99
2018-07-25T03:29:16.715Z,24.89
2018-07-25T03:30:16.734Z,24.91
2018-07-25T03:31:16.903Z,24.91
2018-07-25T03:32:16.782Z,24.81
2018-07-25T03:33:16.550Z,24.84
2018-07-25T03:34:16.581Z,24.84
2018-07-25T03:35:16.860Z,24.78
2018-07-25T03:36:16.894Z,24.73
2018-07-25T03:37:16.914Z,24.81
2018-07-25T03:38:16.676Z,24.76
2018-07-25T03:39:16.703Z,24.74
2018-07-25T03:40:16.995Z,24.81
2018-07-25T03:41:17.023Z,24.76
2018-07-25T03:42:17.037Z,24.74
2018-07-25T03:43:16.804Z,24.73
2018-07-25T03:44:17.092Z,24.69
2018-07-25T03:45:17.121Z,24.69
2018-07-25T03:46:17.147Z,24.68
2018-07-25T03:47:16.923Z,24.61
2018-07-25T03:48:17.197Z,24.61
2018-07-25T03:49:17.218Z,24.65
2018-07-25T03:50:17.680Z,24.66
2018-07-25T03:51:16.750Z,24.6
2018-07-25T03:52:17.038Z,24.57
2018-07-25T03:53:17.068Z,24.6
2018-07-25T03:54:17.351Z,24.58
2018-07-25T03:55:17.113Z,24.65
2018-07-25T03:56:17.147Z,24.61
2018-07-25T03:57:17.433Z,24.6
2018-07-25T03:58:17.200Z,24.57
2018-07-25T03:59:17.478Z,24.57
2018-07-25T04:00:17.241Z,24.63
2018-07-25T04:01:17.269Z,24.51
2018-07-25T04:02:17.035Z,24.57
2018-07-25T04:03:17.069Z,24.51
2018-07-25T04:04:17.343Z,24.54
2018-07-25T04:05:17.370Z,24.48
2018-07-25T04:06:17.403Z,24.5
2018-07-25T04:07:17.678Z,24.53
2018-07-25T04:08:17.928Z,24.51
2018-07-25T04:09:17.969Z,24.54
2018-07-25T04:10:17.761Z,24.4
2018-07-25T04:11:17.783Z,24.42
2018-07-25T04:12:17.547Z,24.47
2018-07-25T04:13:17.839Z,24.43
2018-07-25T04:14:17.862Z,24.45
2018-07-25T04:15:18.059Z,24.47
2018-07-25T04:16:17.394Z,24.47
2018-07-25T04:17:17.937Z,24.42
2018-07-25T04:18:17.714Z,24.43
2018-07-25T04:19:17.986Z,24.42
2018-07-25T04:20:18.269Z,24.36
2018-07-25T04:21:17.778Z,24.4
2018-07-25T04:22:17.804Z,24.45
2018-07-25T04:23:17.570Z,24.35
2018-07-25T04:24:17.857Z,24.38
2018-07-25T04:25:17.885Z,24.4
2018-07-25T04:26:18.166Z,24.4
2018-07-25T04:27:18.193Z,24.32
2018-07-25T04:28:17.958Z,24.36
2018-07-25T04:29:18.244Z,24.39
2018-07-25T04:30:18.274Z,24.3
2018-07-25T04:31:18.293Z,24.29
2018-07-25T04:32:18.334Z,24.3
2018-07-25T04:33:18.349Z,24.28
2018-07-25T04:34:18.366Z,24.3
2018-07-25T04:35:18.395Z,24.28
2018-07-25T04:36:18.164Z,24.38
2018-07-25T04:37:18.448Z,24.29
2018-07-25T04:38:18.210Z,24.29
2018-07-25T04:39:18.236Z,24.28
2018-07-25T04:40:18.261Z,24.23
2018-07-25T04:41:18.438Z,24.23
2018-07-25T04:42:18.573Z,24.2
2018-07-25T04:43:18.608Z,24.21
2018-07-25T04:44:18.624Z,24.24
2018-07-25T04:45:18.651Z,24.2
2018-07-25T04:46:18.583Z,24.24
2018-07-25T04:47:18.704Z,24.2
2018-07-25T04:48:18.729Z,24.21
2018-07-25T04:49:18.757Z,24.28
2018-07-25T04:50:18.778Z,24.18
2018-07-25T04:51:18.799Z,24.18
2018-07-25T04:52:18.877Z,24.2
2018-07-25T04:53:18.854Z,24.21
2018-07-25T04:54:18.621Z,24.16
2018-07-25T04:55:18.900Z,24.16
2018-07-25T04:56:18.817Z,24.16
2018-07-25T04:57:18.949Z,24.18
2018-07-25T04:58:18.978Z,24.17
2018-07-25T04:59:19.010Z,24.17
2018-07-25T05:00:19.028Z,24.16
2018-07-25T05:01:18.792Z,24.2
2018-07-25T05:02:19.081Z,24.17
2018-07-25T05:03:18.843Z,24.14
2018-07-25T05:04:19.138Z,24.16
2018-07-25T05:05:19.154Z,24.11
2018-07-25T05:06:18.917Z,24.18
2018-07-25T05:07:19.424Z,24.23
2018-07-25T05:08:19.228Z,24.2
2018-07-25T05:09:18.995Z,24.17
2018-07-25T05:10:19.277Z,24.16
2018-07-25T05:11:19.308Z,24.16
2018-07-25T05:12:19.334Z,24.14
2018-07-25T05:13:19.095Z,24.14
2018-07-25T05:14:19.389Z,24.16
2018-07-25T05:15:19.147Z,24.11
2018-07-25T05:16:19.178Z,24.2
2018-07-25T05:17:19.463Z,24.17
2018-07-25T05:18:19.482Z,24.17
2018-07-25T05:19:19.247Z,24.16
2018-07-25T05:20:19.272Z,24.17
2018-07-25T05:21:19.557Z,24.17
2018-07-25T05:22:19.323Z,24.18
2018-07-25T05:23:19.632Z,24.18
2018-07-25T05:24:19.371Z,24.2
2018-07-25T05:25:19.657Z,24.2
2018-07-25T05:26:19.420Z,24.2
2018-07-25T05:27:19.732Z,24.17
2018-07-25T05:28:19.477Z,24.17
2018-07-25T05:29:19.758Z,24.18
2018-07-25T05:30:19.783Z,24.18
2018-07-25T05:31:19.810Z,24.17
2018-07-25T05:32:19.843Z,24.2
2018-07-25T05:33:19.860Z,24.17
2018-07-25T05:34:19.629Z,24.28
2018-07-25T05:35:19.906Z,24.21
2018-07-25T05:36:19.934Z,24.26
2018-07-25T05:37:19.973Z,24.26
2018-07-25T05:38:19.940Z,24.18
2018-07-25T05:39:19.762Z,24.24
2018-07-25T05:40:20.047Z,24.24
2018-07-25T05:41:20.072Z,24.3
2018-07-25T05:42:20.086Z,24.24
2018-07-25T05:43:19.857Z,24.24
2018-07-25T05:44:21.145Z,24.28
2018-07-25T05:45:20.462Z,24.26
2018-07-25T05:46:20.439Z,24.26
2018-07-25T05:47:20.896Z,24.23
2018-07-25T05:48:20.653Z,24.28
2018-07-25T05:49:20.353Z,24.28
2018-07-25T05:50:20.294Z,24.28
2018-07-25T05:51:20.351Z,24.26
2018-07-25T05:52:20.344Z,24.39
2018-07-25T05:53:20.365Z,24.32
2018-07-25T05:54:20.125Z,24.3
2018-07-25T05:55:20.848Z,24.32
2018-07-25T05:56:20.436Z,24.42
2018-07-25T05:57:20.855Z,24.35
2018-07-25T05:58:20.919Z,24.3
2018-07-25T05:59:20.751Z,24.36
2018-07-25T06:00:20.715Z,24.38
2018-07-25T06:01:21.745Z,24.4
2018-07-25T06:02:20.714Z,24.38
2018-07-25T06:03:20.543Z,24.47
2018-07-25T06:04:20.811Z,24.51
2018-07-25T06:05:20.671Z,24.51
2018-07-25T06:06:20.430Z,24.39
2018-07-25T06:07:20.455Z,24.51
2018-07-25T06:08:20.755Z,24.43
2018-07-25T06:09:20.507Z,24.45
2018-07-25T06:10:20.528Z,24.57
2018-07-25T06:11:20.813Z,24.42
2018-07-25T06:12:20.576Z,24.43
2018-07-25T06:13:20.923Z,24.58
2018-07-25T06:14:21.068Z,24.53
2018-07-25T06:15:20.912Z,24.54
2018-07-25T06:16:20.678Z,24.5
2018-07-25T06:17:20.964Z,24.54
2018-07-25T06:18:20.990Z,24.54
2018-07-25T06:19:20.495Z,24.6
2018-07-25T06:20:20.778Z,24.55
2018-07-25T06:21:21.072Z,24.58
2018-07-25T06:22:20.833Z,24.63
2018-07-25T06:23:21.117Z,24.61
2018-07-25T06:24:20.881Z,24.63
2018-07-25T06:25:21.172Z,24.69
2018-07-25T06:26:21.192Z,24.63
2018-07-25T06:27:20.956Z,24.66
2018-07-25T06:28:21.379Z,24.74
2018-07-25T06:29:21.021Z,24.73
2018-07-25T06:30:21.291Z,24.69
2018-07-25T06:31:21.135Z,24.77
2018-07-25T06:32:21.345Z,24.7
2018-07-25T06:33:21.108Z,24.78
2018-07-25T06:34:21.432Z,24.81
2018-07-25T06:35:21.415Z,24.8
2018-07-25T06:36:21.441Z,24.8
2018-07-25T06:37:21.208Z,24.8
2018-07-25T06:38:21.490Z,24.81
2018-07-25T06:39:21.521Z,24.85
2018-07-25T06:40:21.543Z,24.86
2018-07-25T06:41:21.568Z,24.84
2018-07-25T06:42:21.345Z,24.86
2018-07-25T06:43:21.888Z,24.89
2018-07-25T06:44:21.385Z,24.91
2018-07-25T06:45:21.669Z,25.01
2018-07-25T06:46:21.173Z,24.95
2018-07-25T06:47:21.715Z,25.01
2018-07-25T06:48:21.740Z,24.98
2018-07-25T06:49:21.768Z,25.01
2018-07-25T06:50:21.799Z,25.1
2018-07-25T06:51:21.821Z,25.07
2018-07-25T06:52:21.849Z,25.06
2018-07-25T06:53:21.659Z,25.11
2018-07-25T06:54:21.898Z,25.13
2018-07-25T06:55:21.926Z,25.1
2018-07-25T06:56:21.960Z,25.21
2018-07-25T06:57:21.804Z,25.21
2018-07-25T06:58:21.740Z,25.25
2018-07-25T06:59:21.881Z,25.25
2018-07-25T07:00:21.793Z,25.26
2018-07-25T07:01:22.076Z,25.28
2018-07-25T07:02:22.101Z,25.32
2018-07-25T07:03:21.870Z,25.32
2018-07-25T07:04:22.154Z,25.44
2018-07-25T07:05:21.922Z,25.47
2018-07-25T07:06:21.947Z,25.44
2018-07-25T07:07:22.168Z,25.46
2018-07-25T07:08:22.253Z,25.55
2018-07-25T07:09:22.034Z,25.51
2018-07-25T07:10:22.302Z,25.55
2018-07-25T07:11:22.335Z,25.59
2018-07-25T07:12:22.112Z,25.6
2018-07-25T07:13:22.382Z,25.68
2018-07-25T07:14:22.147Z,25.68
2018-07-25T07:15:22.687Z,25.77
2018-07-25T07:16:22.456Z,25.83
2018-07-25T07:17:22.259Z,25.83
2018-07-25T07:18:22.248Z,25.93
2018-07-25T07:19:22.271Z,25.95
2018-07-25T07:20:22.308Z,25.99
2018-07-25T07:21:22.584Z,26.07
2018-07-25T07:22:22.621Z,26.18
2018-07-25T07:23:22.376Z,26.25
2018-07-25T07:24:22.661Z,26.31
2018-07-25T07:25:22.428Z,26.29
2018-07-25T07:26:22.453Z,26.26
2018-07-25T07:27:22.477Z,26.4
2018-07-25T07:28:22.776Z,26.44
2018-07-25T07:29:22.785Z,26.51
2018-07-25T07:30:22.826Z,26.53
2018-07-25T07:31:22.722Z,26.65
2018-07-25T07:32:22.867Z,26.74
2018-07-25T07:33:22.889Z,26.78
2018-07-25T07:34:22.662Z,26.85
2018-07-25T07:35:22.949Z,26.92
2018-07-25T07:36:22.967Z,26.92
2018-07-25T07:37:22.884Z,27
2018-07-25T07:38:22.759Z,27.08
2018-07-25T07:39:23.056Z,27.18
2018-07-25T07:40:22.809Z,27.25
2018-07-25T07:41:23.132Z,27.32
2018-07-25T07:42:23.249Z,27.39
2018-07-25T07:43:22.897Z,27.44
2018-07-25T07:44:23.450Z,27.49
2018-07-25T07:45:22.944Z,27.47
2018-07-25T07:46:23.216Z,27.6
2018-07-25T07:47:22.998Z,27.6
2018-07-25T07:48:23.444Z,27.65
2018-07-25T07:49:23.744Z,27.85
2018-07-25T07:50:22.817Z,27.83
2018-07-25T07:51:23.774Z,27.87
2018-07-25T07:52:23.437Z,27.95
2018-07-25T07:53:23.016Z,28.05
2018-07-25T07:54:23.438Z,28.08
2018-07-25T07:55:22.944Z,28.17
2018-07-25T07:56:23.490Z,28.23
2018-07-25T07:57:23.515Z,28.27
2018-07-25T07:58:23.537Z,28.38
2018-07-25T07:59:23.703Z,28.33
2018-07-25T08:00:23.603Z,28.47
2018-07-25T08:01:23.367Z,28.51
2018-07-25T08:02:23.652Z,28.64
2018-07-25T08:03:23.771Z,28.66
2018-07-25T08:04:23.697Z,28.74
2018-07-25T08:05:23.735Z,28.79
2018-07-25T08:06:23.755Z,28.91
2018-07-25T08:07:23.525Z,28.89
2018-07-25T08:08:23.818Z,28.94
2018-07-25T08:09:23.836Z,29.02
2018-07-25T08:10:23.858Z,29.12
2018-07-25T08:11:23.628Z,29.14
2018-07-25T08:12:23.654Z,29.27
2018-07-25T08:13:23.419Z,29.32
2018-07-25T08:14:23.976Z,29.51
2018-07-25T08:15:23.740Z,29.56
2018-07-25T08:16:24.026Z,29.59
2018-07-25T08:17:23.526Z,29.65
2018-07-25T08:18:24.074Z,29.72
2018-07-25T08:19:23.858Z,29.86
2018-07-25T08:20:23.866Z,29.91
2018-07-25T08:21:24.167Z,30.03
2018-07-25T08:22:24.182Z,30.18
2018-07-25T08:23:24.217Z,30.24
2018-07-25T08:24:24.000Z,30.35
2018-07-25T08:25:24.018Z,30.48
2018-07-25T08:26:24.288Z,30.55
2018-07-25T08:27:24.322Z,30.7
2018-07-25T08:28:24.822Z,30.78
2018-07-25T08:29:24.721Z,30.87
2018-07-25T08:30:24.575Z,31.02
2018-07-25T08:31:24.433Z,31.14
2018-07-25T08:32:24.458Z,31.28
2018-07-25T08:33:24.484Z,31.36
2018-07-25T08:34:25.213Z,31.33
2018-07-25T08:35:24.278Z,31.39
2018-07-25T08:36:24.565Z,31.55
2018-07-25T08:37:24.332Z,31.55
2018-07-25T08:38:24.878Z,31.62
2018-07-25T08:39:24.668Z,31.69
2018-07-25T08:40:24.727Z,31.7
2018-07-25T08:41:24.531Z,31.77
2018-07-25T08:42:24.775Z,31.76
2018-07-25T08:43:24.240Z,31.84
2018-07-25T08:44:24.533Z,31.92
2018-07-25T08:45:24.819Z,31.94
2018-07-25T08:46:25.275Z,32.01
2018-07-25T08:47:24.879Z,32.04
2018-07-25T08:48:24.681Z,32.09
2018-07-25T08:49:24.936Z,32.22
2018-07-25T08:50:25.010Z,32.18
2018-07-25T08:51:24.726Z,32.27
2018-07-25T08:52:24.796Z,32.29
2018-07-25T08:53:25.286Z,32.51
2018-07-25T08:54:25.067Z,32.49
2018-07-25T08:55:25.118Z,32.59
2018-07-25T08:56:24.866Z,32.64
2018-07-25T08:57:24.895Z,32.67
2018-07-25T08:58:24.927Z,32.73
2018-07-25T08:59:24.957Z,32.78
2018-07-25T09:00:25.415Z,32.85
2018-07-25T09:01:24.751Z,32.93
2018-07-25T09:02:25.037Z,33.01
2018-07-25T09:03:25.326Z,33.05
2018-07-25T09:04:25.357Z,33.11
2018-07-25T09:05:25.390Z,33.19
2018-07-25T09:06:25.524Z,33.22
2018-07-25T09:07:25.472Z,33.27
2018-07-25T09:08:25.471Z,33.42
2018-07-25T09:09:25.509Z,33.4
2018-07-25T09:10:25.539Z,33.57
2018-07-25T09:11:25.364Z,33.62
2018-07-25T09:12:25.068Z,33.62
2018-07-25T09:13:25.362Z,33.77
2018-07-25T09:14:25.387Z,33.81
2018-07-25T09:15:25.677Z,33.95
2018-07-25T09:16:25.709Z,33.99
2018-07-25T09:17:25.473Z,34.05
2018-07-25T09:18:25.769Z,34.1
2018-07-25T09:19:25.798Z,34.14
2018-07-25T09:20:25.825Z,34.24
2018-07-25T09:21:25.853Z,34.27
2018-07-25T09:22:25.881Z,34.3
2018-07-25T09:23:25.658Z,34.39
2018-07-25T09:24:25.937Z,34.39
2018-07-25T09:25:26.233Z,34.45
2018-07-25T09:26:25.739Z,34.47
2018-07-25T09:27:26.055Z,34.47
2018-07-25T09:28:26.106Z,34.58
2018-07-25T09:29:26.400Z,34.55
2018-07-25T09:30:25.889Z,34.58
2018-07-25T09:31:26.171Z,34.62
2018-07-25T09:32:25.934Z,34.73
2018-07-25T09:33:26.231Z,34.67
2018-07-25T09:34:26.690Z,34.75
2018-07-25T09:35:26.025Z,34.73
2018-07-25T09:36:26.039Z,34.73
2018-07-25T09:37:27.036Z,34.78
2018-07-25T09:38:26.395Z,34.74
2018-07-25T09:39:25.867Z,34.86
2018-07-25T09:40:26.474Z,34.83
2018-07-25T09:41:26.226Z,34.89
2018-07-25T09:42:26.503Z,34.99
2018-07-25T09:43:26.572Z,34.99
2018-07-25T09:44:27.413Z,35.12
2018-07-25T09:45:26.486Z,35.04
2018-07-25T09:46:26.457Z,35.14
2018-07-25T09:47:26.719Z,35.15
2018-07-25T09:48:26.152Z,35.1
2018-07-25T09:49:27.261Z,35.23
2018-07-25T09:50:27.883Z,35.19
2018-07-25T09:51:27.896Z,35.27
2018-07-25T09:52:26.792Z,35.27
2018-07-25T09:53:27.775Z,35.33
2018-07-25T09:54:27.514Z,35.34
2018-07-25T09:55:26.934Z,35.42
2018-07-25T09:56:26.670Z,35.42
2018-07-25T09:57:27.004Z,35.48
2018-07-25T09:58:26.943Z,35.48
2018-07-25T09:59:26.794Z,35.51
2018-07-25T10:00:27.474Z,35.55
2018-07-25T10:01:26.848Z,35.52
2018-07-25T10:02:26.885Z,35.52
2018-07-25T10:03:26.601Z,35.61
2018-07-25T10:04:26.901Z,35.61
2018-07-25T10:05:27.263Z,35.68
2018-07-25T10:06:28.166Z,35.64
2018-07-25T10:07:27.899Z,35.71
2018-07-25T10:08:27.322Z,35.71
2018-07-25T10:09:27.362Z,35.8
2018-07-25T10:10:27.100Z,35.89
2018-07-25T10:11:27.607Z,35.92
2018-07-25T10:12:27.703Z,36.01
2018-07-25T10:13:28.108Z,36.02
2018-07-25T10:14:27.226Z,36.14
2018-07-25T10:15:27.279Z,36.21
2018-07-25T10:16:27.628Z,36.3
2018-07-25T10:17:27.585Z,36.23
2018-07-25T10:18:27.612Z,36.42
2018-07-25T10:19:27.401Z,36.42
2018-07-25T10:20:27.401Z,36.49
2018-07-25T10:21:28.936Z,36.55
2018-07-25T10:22:27.742Z,36.54
2018-07-25T10:23:27.505Z,36.62
2018-07-25T10:24:27.544Z,36.74
2018-07-25T10:25:27.859Z,36.76
2018-07-25T10:26:27.938Z,36.77
2018-07-25T10:27:27.854Z,36.76
2018-07-25T10:28:28.474Z,36.84
2018-07-25T10:29:27.716Z,36.84
2018-07-25T10:30:27.996Z,36.92
2018-07-25T10:31:28.109Z,37.02
2018-07-25T10:32:27.792Z,36.96
2018-07-25T10:33:27.828Z,37.01
2018-07-25T10:34:27.886Z,37.06
2018-07-25T10:35:27.891Z,37.11
2018-07-25T10:36:29.378Z,37.1
2018-07-25T10:37:28.250Z,37.07
2018-07-25T10:38:28.254Z,37.13
2018-07-25T10:39:27.746Z,37.14
2018-07-25T10:40:28.061Z,37.14
2018-07-25T10:41:28.349Z,37.23
2018-07-25T10:42:28.549Z,37.26
2018-07-25T10:43:28.817Z,37.32
2018-07-25T10:44:28.437Z,37.42
2018-07-25T10:45:28.225Z,37.42
2018-07-25T10:46:27.970Z,37.49
2018-07-25T10:47:28.594Z,37.55
2018-07-25T10:48:28.608Z,37.53
2018-07-25T10:49:28.090Z,37.7
2018-07-25T10:50:28.364Z,37.72
2018-07-25T10:51:30.337Z,37.82
2018-07-25T10:52:29.633Z,37.8
2018-07-25T10:53:28.480Z,37.93
2018-07-25T10:54:28.798Z,37.96
2018-07-25T10:55:28.808Z,37.99
2018-07-25T10:56:28.862Z,38.05
2018-07-25T10:57:28.327Z,38.06
2018-07-25T10:58:28.927Z,38.14
2018-07-25T10:59:29.402Z,38.17
2018-07-25T11:00:28.996Z,38.31
2018-07-25T11:01:28.730Z,38.24
2018-07-25T11:02:28.501Z,38.36
2018-07-25T11:03:29.081Z,38.42
2018-07-25T11:04:28.827Z,38.49
2018-07-25T11:05:28.881Z,38.52
2018-07-25T11:06:30.079Z,38.45
2018-07-25T11:07:29.223Z,38.6
2018-07-25T11:08:29.223Z,38.49
2018-07-25T11:09:29.273Z,38.55
2018-07-25T11:10:29.285Z,38.62
2018-07-25T11:11:29.048Z,38.62
2018-07-25T11:12:29.352Z,38.71
2018-07-25T11:13:29.399Z,38.84
2018-07-25T11:14:29.690Z,38.89
2018-07-25T11:15:30.138Z,38.96
2018-07-25T11:16:29.449Z,38.97
2018-07-25T11:17:29.531Z,39.14
2018-07-25T11:18:29.708Z,39.24
2018-07-25T11:19:29.064Z,39.26
2018-07-25T11:20:29.360Z,39.36
2018-07-25T11:21:29.399Z,39.49
2018-07-25T11:22:30.472Z,39.38
2018-07-25T11:23:29.453Z,39.55
2018-07-25T11:24:29.777Z,39.65
2018-07-25T11:25:29.538Z,39.74
2018-07-25T11:26:29.853Z,39.78
2018-07-25T11:27:29.590Z,39.83
2018-07-25T11:28:29.618Z,39.97
2018-07-25T11:29:29.660Z,40.06
2018-07-25T11:30:29.950Z,40.23
2018-07-25T11:31:29.982Z,40.23
2018-07-25T11:32:29.889Z,40.3
2018-07-25T11:33:30.056Z,40.41
2018-07-25T11:34:29.828Z,40.53
2018-07-25T11:35:30.116Z,40.62
2018-07-25T11:36:30.151Z,40.63
2018-07-25T11:37:30.183Z,40.7
2018-07-25T11:38:30.229Z,40.8
2018-07-25T11:39:30.002Z,40.84
2018-07-25T11:40:30.288Z,40.99
2018-07-25T11:41:29.803Z,40.97
2018-07-25T11:42:30.359Z,41.06
2018-07-25T11:43:29.868Z,41.22
2018-07-25T11:44:30.162Z,41.29
2018-07-25T11:45:30.200Z,41.34
2018-07-25T11:46:30.492Z,41.43
2018-07-25T11:47:30.267Z,41.41
2018-07-25T11:48:30.565Z,41.52
2018-07-25T11:49:30.338Z,41.56
2018-07-25T11:50:31.123Z,41.71
2018-07-25T11:51:30.675Z,41.8
2018-07-25T11:52:30.444Z,41.77
2018-07-25T11:53:30.743Z,41.9
2018-07-25T11:54:30.780Z,41.95
2018-07-25T11:55:30.718Z,42.01
2018-07-25T11:56:30.581Z,42.06
2018-07-25T11:57:30.938Z,42.1
2018-07-25T11:58:30.922Z,42.2
2018-07-25T11:59:30.955Z,42.31
2018-07-25T12:00:30.989Z,42.35
2018-07-25T12:01:30.551Z,42.28
2018-07-25T12:02:31.084Z,42.41
2018-07-25T12:03:31.309Z,42.45
2018-07-25T12:04:31.127Z,42.45
2018-07-25T12:05:30.992Z,42.5
2018-07-25T12:06:31.528Z,42.45
2018-07-25T12:07:31.444Z,42.48
2018-07-25T12:08:31.045Z,42.48
2018-07-25T12:09:32.117Z,42.47
2018-07-25T12:10:31.366Z,42.47
2018-07-25T12:11:31.418Z,42.39
2018-07-25T12:12:31.451Z,42.44
2018-07-25T12:13:31.482Z,42.43
2018-07-25T12:14:31.236Z,42.36
2018-07-25T12:15:31.529Z,42.39
2018-07-25T12:16:31.306Z,42.38
2018-07-25T12:17:32.261Z,42.35
2018-07-25T12:18:31.660Z,42.41
2018-07-25T12:19:31.710Z,42.44
2018-07-25T12:20:31.468Z,42.39
2018-07-25T12:21:31.783Z,42.41
2018-07-25T12:22:31.799Z,42.51
2018-07-25T12:23:31.577Z,42.57
2018-07-25T12:24:31.318Z,42.62
2018-07-25T12:25:31.919Z,42.57
2018-07-25T12:26:32.149Z,42.76
2018-07-25T12:27:31.726Z,42.7
2018-07-25T12:28:31.788Z,42.81
2018-07-25T12:29:31.785Z,42.91
2018-07-25T12:30:32.411Z,42.84
2018-07-25T12:31:32.331Z,42.94
2018-07-25T12:32:32.183Z,42.95
2018-07-25T12:33:31.917Z,43.06
2018-07-25T12:34:32.284Z,43.15
2018-07-25T12:35:31.715Z,43.19
2018-07-25T12:36:32.027Z,43.2
2018-07-25T12:37:32.448Z,43.2
2018-07-25T12:38:32.487Z,43.31
2018-07-25T12:39:32.145Z,43.3
2018-07-25T12:40:32.732Z,43.39
2018-07-25T12:41:33.469Z,43.46
2018-07-25T12:42:32.541Z,43.53
2018-07-25T12:43:32.571Z,43.62
2018-07-25T12:44:32.601Z,43.64
2018-07-25T12:45:32.363Z,43.83
2018-07-25T12:46:33.044Z,43.83
2018-07-25T12:47:32.743Z,43.94
2018-07-25T12:48:32.621Z,44.03
2018-07-25T12:49:32.789Z,44.08
2018-07-25T12:50:32.950Z,44.21
2018-07-25T12:51:32.845Z,44.18
2018-07-25T12:52:33.341Z,44.26
2018-07-25T12:53:33.483Z,44.37
2018-07-25T12:54:32.839Z,44.37
2018-07-25T12:55:33.451Z,44.37